Startpagina
METAR-TAF:

METAR-TAF

Vliegvelden :

Aéroport Nantes Atlantique

Nantes, Frankrijk

breedte: 47-10N, lengte: 001-36W, hoogte: 27 m

Actueel weer

Dit bericht is 25 minuten geleden gemaakt, om 05:30 UTC
Wind 2 kt uit variabele richting
Temperatuur 17°C
Vochtigheid 68%
Druk 1017 hPa
Zicht 10 km of meer
geen wolken onder 1500 m en geen cumulonimbus

METAR: LFRS 020530Z AUTO VRB02KT CAVOK 17/11 Q1017 NOSIG

Tijdstip: 07:55 (05:55 UTC)

Verwachting

Dit bericht is 55 minuten geleden gemaakt, om 05:00 UTC
Verwachting geldig van 02 om 06 UTC tot 03 om 12 UTC
Wind 5 kt uit het noordnoordoosten
Zicht 10 km of meer
geen wolken onder 1500 m en geen cumulonimbus

TAF: LFRS 020500Z 0206/0312 03005KT CAVOK

Waarnemingen en weersverwachtingen van meer dan 4000 vliegvelden (METAR en TAF).

De beschikbare stations zijn de gele en rode punten op de kaart.

Ga met uw muis naar het station om de naam te zien.

Klik dan om waarnemingen en weersverwachtingen te zien.

kaart wijzigen: klik op de groene knoppen met een zwart kruis om in te zoomen, op de groene knop met een streepje om uit te zoomen of op de groene pijlen voor aangrenzende kaarten.


METAR-TAF: